No particular awareness of the weather is required.    There are no Weather-warnings


Meteo18 Weather Cam more information Meteo18 Weather Cam


Thunder radar more information blitzortung!


Rain radar more information rain snow radar


Visit our other weather sites:

Template documentation
and downloads

And another site



Weather Underground History page Text

Daily Summary for November 30, 2017 Units:  English    Metric   Both
« Previous Day
Next Day »
Daily Weekly Monthly Yearly Custom
  High: Low: Average:
Temperature: TemperatureC °F -0.2 °F 2 °F
Dew Point: DewpointC °F -0.8 °F 1 °F
Humidity: Humidity % 90 % 93 %
Wind Speed: WindSpeedKMH mph 0.0 mph 5.2 mph
Wind Gust: WindSpeedGustKMH mph - -
Wind:- - WNW
Pressure: PressurehPa in 1010.0 in -
Precipitation: 3.6 in    
Historical Graphs
 
 
Tabular Data for November 30, 2017
Time Temperature Dew Point Pressure Wind Wind Speed Wind Gust Humidity Rainfall Rate (Hourly)
TemperatureC °F DewpointC °F PressurehPa in Calm     Humidity % HourlyPrecipMM in
00:02 2.8 °F 1.8 °F 1011.4 in WNW 3.2 mph 4.8 mph 93 % 0.0 in
00:12 2.7 °F 1.7 °F 1011.4 in West 3.2 mph 4.8 mph 93 % 0.0 in
00:17 2.7 °F 1.7 °F 1011.4 in WNW 6.4 mph 6.4 mph 93 % 0.0 in
00:22 2.7 °F 1.7 °F 1011.4 in West 3.2 mph 6.4 mph 93 % 0.0 in
00:47 2.7 °F 1.7 °F 1011.4 in WNW 1.6 mph 8.0 mph 93 % 0.0 in
00:52 2.7 °F 1.7 °F 1011.4 in West 4.8 mph 8.0 mph 93 % 0.0 in
00:57 2.7 °F 1.7 °F 1011.4 in West 3.2 mph 6.4 mph 93 % 0.0 in
01:02 2.6 °F 1.6 °F 1011.4 in West 6.4 mph 6.4 mph 93 % 0.0 in
01:17 2.6 °F 1.6 °F 1011.1 in WSW 3.2 mph 11.3 mph 93 % 0.0 in
01:22 2.6 °F 1.6 °F 1011.4 in WNW 1.6 mph 11.3 mph 93 % 0.0 in
01:42 2.5 °F 1.6 °F 1011.1 in WNW 4.8 mph 9.7 mph 94 % 0.0 in
01:47 2.5 °F 1.6 °F 1011.1 in West 8.0 mph 9.7 mph 94 % 0.0 in
01:52 2.5 °F 1.5 °F 1011.1 in WNW 8.0 mph 9.7 mph 93 % 0.0 in
01:57 2.4 °F 1.4 °F 1011.1 in West 8.0 mph 12.9 mph 93 % 0.0 in
02:12 2.4 °F 1.4 °F 1011.1 in WNW 8.0 mph 12.9 mph 93 % 0.0 in
02:17 2.4 °F 1.4 °F 1011.1 in West 3.2 mph 16.1 mph 93 % 0.0 in
02:22 2.4 °F 1.4 °F 1011.1 in WNW 6.4 mph 16.1 mph 93 % 0.0 in
02:32 2.4 °F 1.4 °F 1011.1 in NW 8.0 mph 11.3 mph 93 % 0.0 in
02:37 2.4 °F 1.4 °F 1011.1 in West 8.0 mph 11.3 mph 93 % 0.0 in
02:47 2.3 °F 1.4 °F 1011.4 in WNW 11.3 mph 12.9 mph 94 % 0.0 in
02:52 2.3 °F 1.4 °F 1011.4 in West 6.4 mph 12.9 mph 94 % 0.0 in
02:57 2.3 °F 1.4 °F 1011.4 in West 4.8 mph 11.3 mph 94 % 0.0 in
03:02 2.4 °F 1.5 °F 1011.4 in West 4.8 mph 11.3 mph 94 % 0.0 in
03:12 2.4 °F 1.5 °F 1011.4 in West 4.8 mph 9.7 mph 94 % 0.0 in
03:37 2.4 °F 1.5 °F 1011.1 in WNW 8.0 mph 12.9 mph 94 % 0.0 in
03:42 2.4 °F 1.5 °F 1011.1 in NW 19.3 mph 19.3 mph 94 % 0.0 in
03:52 2.4 °F 1.5 °F 1011.1 in West 6.4 mph 19.3 mph 94 % 0.0 in
04:02 2.4 °F 1.5 °F 1011.1 in WNW 6.4 mph 19.3 mph 94 % 0.0 in
04:12 2.3 °F 1.4 °F 1011.1 in NW 8.0 mph 12.9 mph 94 % 0.0 in
04:17 2.3 °F 1.4 °F 1011.1 in WNW 6.4 mph 17.7 mph 94 % 0.0 in
04:32 2.3 °F 1.4 °F 1011.1 in WNW 4.8 mph 12.9 mph 94 % 0.0 in
04:42 2.2 °F 1.3 °F 1011.1 in WNW 3.2 mph 17.7 mph 94 % 0.3 in
04:47 2.2 °F 1.3 °F 1011.1 in WNW 11.3 mph 16.1 mph 94 % 0.5 in
04:52 2.2 °F 1.3 °F 1011.1 in West 9.7 mph 16.1 mph 94 % 0.5 in
05:02 2.2 °F 1.3 °F 1011.1 in WNW 3.2 mph 16.1 mph 94 % 0.5 in
05:07 2.2 °F 1.3 °F 1011.1 in NW 6.4 mph 17.7 mph 94 % 0.5 in
05:12 2.2 °F 1.3 °F 1011.1 in NW 6.4 mph 17.7 mph 94 % 0.5 in
05:17 2.2 °F 1.5 °F 1011.1 in NW 1.6 mph 17.7 mph 95 % 0.5 in
05:22 2.3 °F 1.6 °F 1011.1 in NNW 4.8 mph 17.7 mph 95 % 0.5 in
05:42 2.4 °F 1.5 °F 1011.1 in WNW 6.4 mph 16.1 mph 94 % 0.3 in
05:47 2.4 °F 1.5 °F 1011.1 in NW 8.0 mph 12.9 mph 94 % 0.0 in
05:52 2.4 °F 1.5 °F 1011.1 in West 3.2 mph 12.9 mph 94 % 0.0 in
06:02 2.4 °F 1.5 °F 1011.1 in West 1.6 mph 12.9 mph 94 % 0.0 in
06:12 2.4 °F 1.5 °F 1011.1 in WNW 6.4 mph 14.5 mph 94 % 0.0 in
06:17 2.4 °F 1.5 °F 1011.1 in NW 4.8 mph 11.3 mph 94 % 0.0 in
06:22 2.4 °F 1.5 °F 1011.1 in WNW 3.2 mph 11.3 mph 94 % 0.0 in
06:27 2.4 °F 1.5 °F 1011.4 in West 6.4 mph 11.3 mph 94 % 0.0 in
06:32 2.5 °F 1.6 °F 1011.4 in WNW 6.4 mph 11.3 mph 94 % 0.0 in
06:37 2.5 °F 1.6 °F 1011.4 in WNW 9.7 mph 11.3 mph 94 % 0.0 in
06:42 2.5 °F 1.6 °F 1011.4 in WNW 6.4 mph 16.1 mph 94 % 0.0 in
06:52 2.5 °F 1.6 °F 1011.4 in NW 8.0 mph 16.1 mph 94 % 0.0 in
06:57 2.5 °F 1.6 °F 1011.4 in WNW 11.3 mph 14.5 mph 94 % 0.0 in
07:07 2.5 °F 1.6 °F 1011.4 in NW 1.6 mph 14.5 mph 94 % 0.0 in
07:12 2.5 °F 1.6 °F 1011.4 in WSW 3.2 mph 19.3 mph 94 % 0.0 in
07:17 2.4 °F 1.5 °F 1011.4 in WNW 6.4 mph 19.3 mph 94 % 0.0 in
07:22 2.5 °F 1.6 °F 1011.4 in NW 4.8 mph 14.5 mph 94 % 0.3 in
07:32 2.4 °F 1.5 °F 1011.4 in WNW 3.2 mph 14.5 mph 94 % 0.3 in
07:42 2.4 °F 1.5 °F 1011.4 in NW 1.6 mph 16.1 mph 94 % 0.3 in
07:52 2.4 °F 1.5 °F 1011.7 in WNW 11.3 mph 11.3 mph 94 % 0.3 in
07:57 2.4 °F 1.5 °F 1011.7 in WSW 9.7 mph 11.3 mph 94 % 0.3 in
08:02 2.4 °F 1.5 °F 1011.7 in WNW 9.7 mph 19.3 mph 94 % 0.3 in
08:07 2.4 °F 1.5 °F 1011.7 in West 1.6 mph 19.3 mph 94 % 0.3 in
08:12 2.4 °F 1.5 °F 1011.7 in WNW 8.0 mph 19.3 mph 94 % 0.0 in
08:17 2.4 °F 1.5 °F 1011.7 in West 1.6 mph 19.3 mph 94 % 0.0 in
08:22 2.4 °F 1.5 °F 1011.7 in NW 3.2 mph 11.3 mph 94 % 0.0 in
08:32 2.4 °F 1.5 °F 1012.1 in WNW 3.2 mph 14.5 mph 94 % 0.0 in
08:42 2.5 °F 1.6 °F 1012.1 in NW 4.8 mph 16.1 mph 94 % 0.0 in
08:52 2.5 °F 1.6 °F 1012.1 in WNW 8.0 mph 16.1 mph 94 % 0.0 in
09:02 2.5 °F 1.6 °F 1012.4 in NW 9.7 mph 17.7 mph 94 % 0.0 in
09:17 2.5 °F 1.6 °F 1012.4 in West 3.2 mph 12.9 mph 94 % 0.0 in
09:32 2.4 °F 1.4 °F 1012.8 in NW 8.0 mph 17.7 mph 93 % 0.0 in
09:37 2.4 °F 1.4 °F 1012.8 in WNW 4.8 mph 17.7 mph 93 % 0.0 in
09:42 2.5 °F 1.5 °F 1012.4 in WNW 6.4 mph 17.7 mph 93 % 0.0 in
09:47 2.6 °F 1.6 °F 1012.4 in West 3.2 mph 17.7 mph 93 % 0.0 in
10:02 2.8 °F 1.8 °F 1012.4 in West 6.4 mph 9.7 mph 93 % 0.0 in
10:12 2.9 °F 1.7 °F 1012.4 in NW 3.2 mph 14.5 mph 92 % 0.0 in
10:17 3.1 °F 1.9 °F 1012.4 in West 6.4 mph 14.5 mph 92 % 0.0 in
10:27 3.2 °F 1.7 °F 1012.8 in WNW 6.4 mph 17.7 mph 90 % 0.0 in
10:32 3.2 °F 1.7 °F 1012.8 in WNW 8.0 mph 14.5 mph 90 % 0.0 in
10:57 2.9 °F 1.6 °F 1012.8 in WNW 8.0 mph 20.9 mph 91 % 0.0 in
11:02 3.0 °F 1.8 °F 1012.8 in NW 4.8 mph 14.5 mph 92 % 0.0 in
11:12 3.1 °F 1.9 °F 1012.8 in SW 3.2 mph 12.9 mph 92 % 0.0 in
11:22 3.1 °F 1.8 °F 1012.8 in WSW 4.8 mph 14.5 mph 91 % 0.0 in
11:27 3.1 °F 1.8 °F 1012.8 in West 1.6 mph 14.5 mph 91 % 0.0 in
11:32 3.2 °F 1.9 °F 1012.8 in NW 6.4 mph 14.5 mph 91 % 0.0 in
11:37 3.2 °F 1.9 °F 1012.4 in West 9.7 mph 14.5 mph 91 % 0.0 in
11:47 3.3 °F 2.0 °F 1012.4 in West 8.0 mph 14.5 mph 91 % 0.0 in
11:52 3.3 °F 1.8 °F 1012.4 in WNW 9.7 mph 14.5 mph 90 % 0.0 in
11:57 3.3 °F 1.8 °F 1012.4 in WNW 8.0 mph 14.5 mph 90 % 0.0 in
12:02 3.2 °F 1.7 °F 1012.1 in WNW 6.4 mph 16.1 mph 90 % 0.0 in
12:12 3.2 °F 1.9 °F 1012.1 in West 9.7 mph 14.5 mph 91 % 0.0 in
12:17 3.1 °F 1.8 °F 1012.1 in West 4.8 mph 14.5 mph 91 % 0.0 in
12:27 3.1 °F 1.8 °F 1012.1 in West 4.8 mph 12.9 mph 91 % 0.0 in
12:32 3.1 °F 1.8 °F 1012.1 in West 12.9 mph 12.9 mph 91 % 0.0 in
12:37 3.0 °F 1.7 °F 1011.7 in West 3.2 mph 16.1 mph 91 % 0.0 in
12:42 2.9 °F 1.6 °F 1011.7 in WNW 9.7 mph 16.1 mph 91 % 0.0 in
12:47 2.9 °F 1.6 °F 1011.7 in West 4.8 mph 16.1 mph 91 % 0.0 in
12:52 2.9 °F 1.6 °F 1011.7 in West 6.4 mph 16.1 mph 91 % 0.0 in
13:02 2.9 °F 1.7 °F 1011.7 in West 8.0 mph 16.1 mph 92 % 0.0 in
13:12 3.1 °F 1.9 °F 1011.7 in WSW 11.3 mph 12.9 mph 92 % 0.0 in
13:17 3.1 °F 1.8 °F 1011.7 in WSW 9.7 mph 12.9 mph 91 % 0.0 in
13:22 3.2 °F 1.9 °F 1011.4 in WSW 9.7 mph 12.9 mph 91 % 0.0 in
13:27 3.2 °F 1.7 °F 1011.4 in West 3.2 mph 19.3 mph 90 % 0.0 in
13:32 3.3 °F 2.0 °F 1011.4 in West 9.7 mph 19.3 mph 91 % 0.0 in
13:47 2.7 °F 1.4 °F 1011.4 in WSW 14.5 mph 20.9 mph 91 % 0.5 in
13:52 2.6 °F 1.6 °F 1011.4 in West 11.3 mph 20.9 mph 93 % 0.5 in
13:57 2.6 °F 1.6 °F 1011.4 in West 11.3 mph 19.3 mph 93 % 0.8 in
14:02 2.6 °F 1.6 °F 1011.4 in WNW 1.6 mph 19.3 mph 93 % 0.8 in
14:12 1.8 °F 0.8 °F 1011.4 in NW 4.8 mph 19.3 mph 93 % 1.0 in
14:17 1.9 °F 1.0 °F 1011.4 in WNW 3.2 mph 12.9 mph 94 % 1.3 in
14:22 2.1 °F 1.4 °F 1011.4 in West 1.6 mph 12.9 mph 95 % 1.3 in
14:27 2.2 °F 1.3 °F 1011.1 in WNW 3.2 mph 12.9 mph 94 % 1.3 in
14:42 2.8 °F 1.9 °F 1010.7 in SW 3.2 mph 8.0 mph 94 % 1.3 in
14:47 3.1 °F 2.2 °F 1010.7 in SW 1.6 mph 8.0 mph 94 % 0.8 in
14:57 3.3 °F 2.1 °F 1010.7 in WSW 8.0 mph 12.9 mph 92 % 0.5 in
15:12 2.8 °F 1.3 °F 1011.1 in WNW 9.7 mph 17.7 mph 90 % 0.3 in
15:22 1.5 °F 0.2 °F 1010.7 in WNW 9.7 mph 19.3 mph 91 % 0.5 in
15:32 1.2 °F 0.2 °F 1011.1 in NW 4.8 mph 19.3 mph 93 % 0.5 in
15:37 1.0 °F 0.0 °F 1011.1 in NNW 8.0 mph 16.1 mph 93 % 0.5 in
15:42 0.7 °F -0.2 °F 1011.1 in NNW 1.6 mph 16.1 mph 94 % 0.5 in
15:57 0.6 °F -0.1 °F 1011.1 in WNW 4.8 mph 14.5 mph 95 % 0.8 in
16:02 0.6 °F -0.1 °F 1011.1 in NNW 3.2 mph 14.5 mph 95 % 0.8 in
16:12 0.7 °F 0.0 °F 1011.1 in West 1.6 mph 8.0 mph 95 % 0.5 in
16:32 0.9 °F 0.2 °F 1010.7 in West 1.6 mph 9.7 mph 95 % 0.5 in
16:37 0.9 °F 0.2 °F 1010.7 in Calm   9.7 mph 95 % 0.5 in
16:47 1.1 °F 0.2 °F 1011.1 in WNW 4.8 mph 6.4 mph 94 % 0.5 in
16:52 1.2 °F 0.3 °F 1011.1 in West 3.2 mph 6.4 mph 94 % 0.5 in
17:02 1.3 °F 0.4 °F 1011.1 in WNW 3.2 mph 8.0 mph 94 % 0.5 in
17:07 1.3 °F 0.4 °F 1011.1 in Calm   8.0 mph 94 % 0.5 in
17:17 1.4 °F 0.5 °F 1011.1 in West 3.2 mph 6.4 mph 94 % 0.3 in
17:22 1.6 °F 0.7 °F 1011.1 in WNW 8.0 mph 8.0 mph 94 % 0.3 in
17:32 1.7 °F 0.5 °F 1011.1 in WNW 3.2 mph 12.9 mph 92 % 0.5 in
17:37 1.7 °F 0.5 °F 1011.4 in West 3.2 mph 12.9 mph 92 % 0.5 in
17:52 1.8 °F 0.8 °F 1011.4 in WSW 6.4 mph 12.9 mph 93 % 0.3 in
17:57 1.8 °F 0.8 °F 1011.4 in West 4.8 mph 12.9 mph 93 % 0.5 in
18:02 1.7 °F 0.7 °F 1011.4 in WNW 6.4 mph 11.3 mph 93 % 0.5 in
18:07 1.7 °F 0.7 °F 1011.1 in WNW 3.2 mph 11.3 mph 93 % 0.5 in
18:12 1.7 °F 0.7 °F 1011.4 in West 3.2 mph 11.3 mph 93 % 0.5 in
18:17 1.8 °F 0.8 °F 1011.1 in WNW 3.2 mph 11.3 mph 93 % 0.5 in
18:22 1.7 °F 0.7 °F 1011.1 in West 1.6 mph 9.7 mph 93 % 0.5 in
18:32 1.8 °F 0.6 °F 1011.4 in West 6.4 mph 9.7 mph 92 % 0.3 in
18:37 1.8 °F 0.6 °F 1011.1 in West 1.6 mph 9.7 mph 92 % 0.3 in
18:42 1.8 °F 0.6 °F 1011.4 in WNW 4.8 mph 14.5 mph 92 % 0.3 in
18:52 1.8 °F 0.6 °F 1011.4 in NW 8.0 mph 9.7 mph 92 % 0.3 in
18:57 1.8 °F 0.3 °F 1011.4 in NW 16.1 mph 19.3 mph 90 % 0.3 in
19:02 1.4 °F -0.1 °F 1011.7 in NNW 19.3 mph 19.3 mph 90 % 0.3 in
19:22 0.2 °F -0.5 °F 1011.1 in WNW 1.6 mph 30.6 mph 95 % 0.3 in
19:32 0.2 °F -0.5 °F 1011.1 in Calm   14.5 mph 95 % 0.3 in
19:57 0.3 °F -0.3 °F 1010.7 in SW 3.2 mph 4.8 mph 96 % 0.0 in
20:17 0.4 °F -0.2 °F 1010.7 in Calm   4.8 mph 96 % 0.0 in
20:22 0.4 °F -0.2 °F 1010.7 in West 1.6 mph 4.8 mph 96 % 0.0 in
20:27 0.4 °F -0.2 °F 1010.4 in SW 1.6 mph 4.8 mph 96 % 0.0 in
20:52 0.6 °F 0.0 °F 1010.4 in Calm   6.4 mph 96 % 0.0 in
21:02 0.3 °F -0.4 °F 1010.4 in East 1.6 mph 4.8 mph 95 % 0.0 in
21:12 0.1 °F -0.6 °F 1010.4 in Calm   1.6 mph 95 % 0.0 in
21:17 0.1 °F -0.5 °F 1010.4 in Calm   1.6 mph 96 % 0.0 in
21:22 0.1 °F -0.5 °F 1010.4 in Calm   1.6 mph 96 % 0.0 in
21:27 0.2 °F -0.4 °F 1010.4 in NW 3.2 mph 3.2 mph 96 % 0.0 in
21:32 0.2 °F -0.4 °F 1010.4 in WNW 8.0 mph 8.0 mph 96 % 0.0 in
21:42 0.1 °F -0.5 °F 1010.4 in Calm   12.9 mph 96 % 0.0 in
21:47 0.1 °F -0.5 °F 1010.0 in WNW 1.6 mph 12.9 mph 96 % 0.0 in
22:02 0.1 °F -0.5 °F 1010.0 in North 1.6 mph 6.4 mph 96 % 0.0 in
22:12 0.0 °F -0.6 °F 1010.4 in Calm   4.8 mph 96 % 0.0 in
22:17 0.0 °F -0.6 °F 1010.4 in Calm   3.2 mph 96 % 0.0 in
22:22 -0.1 °F -0.7 °F 1010.7 in Calm   1.6 mph 96 % 0.0 in
22:27 -0.1 °F -0.7 °F 1010.7 in Calm   1.6 mph 96 % 0.0 in
22:32 -0.1 °F -0.7 °F 1010.7 in Calm   1.6 mph 96 % 0.0 in
22:37 -0.1 °F -0.7 °F 1010.7 in Calm   1.6 mph 96 % 0.0 in
22:42 -0.2 °F -0.8 °F 1010.7 in Calm   1.6 mph 96 % 0.0 in
22:52 -0.2 °F -0.8 °F 1010.7 in NW 6.4 mph 8.0 mph 96 % 0.0 in
22:57 -0.1 °F -0.7 °F 1010.7 in WNW 3.2 mph 14.5 mph 96 % 0.0 in
23:02 -0.1 °F -0.7 °F 1010.7 in WNW 6.4 mph 14.5 mph 96 % 0.0 in
23:07 -0.1 °F -0.7 °F 1010.7 in WNW 8.0 mph 14.5 mph 96 % 0.0 in
23:12 -0.1 °F -0.7 °F 1010.7 in West 4.8 mph 14.5 mph 96 % 0.0 in
23:22 -0.1 °F -0.8 °F 1010.7 in WSW 3.2 mph 12.9 mph 95 % 0.0 in
23:27 -0.1 °F -0.8 °F 1010.7 in NW 4.8 mph 9.7 mph 95 % 0.0 in
Meteo18
Compliments of Weather Underground - 4 mb

Script developed by  Jim McMurry - jmcmurry@mwt.net Adapted for the template by  Wim van der Kuil - Leuven-Template.eu

You find our weather info also at:

European Weather Network

Weather Underground

Equipment we use:

Weather-station
Davis Vue

Weather-program
Meteobridge

Weather-server
Raspberry PI 2 B+

Provider
1 and 1

Davis Vue

Meteobridge

Raspberry PI 2 B+

1 and 1